Dati Storici

Data ora Umidita' aria (%) Temperatura aria (°C) Rad globale (W/m²) Gonioanemometro (°) Tacoanemometro (m/s) Pioggia (mm)
01-07-2020 17:30 68.1 % 28.313 66.154 0.534 0 0
01-07-2020 17:20 70.2 % 28.507 327.114 -0.034 0 0
01-07-2020 17:10 73.4 % 27.784 104.119 -0.019 0 0
01-07-2020 17:00 76.4 % 27.419 43.478 -0.028 0 0
01-07-2020 16:50 78.8 % 27.143 114.26 -0.025 0 0
01-07-2020 16:40 79.3 % 26.888 83.9 0.448 0 0
01-07-2020 16:30 82.7 % 26.601 44.959 -0.016 0 0
01-07-2020 16:20 82.4 % 26.554 78.605 0.962 0 0
01-07-2020 16:10 79.8 % 26.496 113.275 -0.021 0 0
01-07-2020 16:00 77.5 % 26.401 164.39 -0.024 0 0
01-07-2020 15:50 77 % 26.922 76.484 -0.021 0 0
01-07-2020 15:40 72.9 % 26.94 113.243 0.606 0 0
01-07-2020 15:30 72.2 % 27.199 83.589 -0.01 0 0
01-07-2020 15:20 71.2 % 27.317 106.512 1.883 0 0
01-07-2020 15:10 68.5 % 27.661 108.994 1.425 0 0
01-07-2020 15:00 67.8 % 28.084 105.346 1.37 0 0
01-07-2020 14:50 65.8 % 28.01 -73.535 1.383 0 0
01-07-2020 14:40 64.9 % 28.427 -55.427 1.587 0 0
01-07-2020 14:30 63.5 % 29.032 -45.464 1.513 0 0
01-07-2020 14:20 62.2 % 29.372 -64.741 1.594 0 0

I dati sono presentati in modo automatico a scopo informativo. In seguito a verifica i dati possono subire modifiche o essere invalidati e non riportati negli archivi definitivi.